Time;durP1;ratioP1;P1;durP2;ratioP2;P2;SDS_P1;SDS_P2;PMS_P1;PMS_P2;Temp;Humidity;BMP_temperature;BMP_pressure;BME280_temperature;BME280_humidity;BME280_pressure;Samples;Min_cycle;Max_cycle;Signal;HPM_P1;HPM_P2
2021/06/19 00:00:51;;;;;;;7.88;4.60;;;;;;;;;;5093945;28;20038;-69
2021/06/19 00:03:17;;;;;;;9.02;4.65;;;;;;;;;;5094349;28;20016;-68
2021/06/19 00:05:43;;;;;;;6.47;4.45;;;;;;;;;;5093801;28;20048;-69
2021/06/19 00:08:12;;;;;;;6.60;4.20;;;;;;;;;;5094165;28;20530;-69
2021/06/19 00:10:38;;;;;;;7.20;3.83;;;;;;;;;;5094566;28;20107;-70
2021/06/19 00:13:04;;;;;;;6.15;4.15;;;;;;;;;;5093972;28;20024;-69
2021/06/19 00:15:30;;;;;;;7.32;4.53;;;;;;;;;;5094199;28;20032;-69
2021/06/19 00:17:56;;;;;;;6.65;4.03;;;;;;;;;;5092762;28;20161;-70
2021/06/19 00:20:24;;;;;;;9.57;4.03;;;;;;;;;;5094426;28;20020;-68
2021/06/19 00:22:51;;;;;;;5.93;3.45;;;;;;;;;;5093881;28;20369;-68
2021/06/19 00:25:18;;;;;;;6.57;3.50;;;;;;;;;;5093697;28;20024;-69
2021/06/19 00:27:44;;;;;;;14.65;4.22;;;;;;;;;;5094677;28;20055;-70
2021/06/19 00:30:13;;;;;;;5.97;3.92;;;;;;;;;;5093686;28;20024;-69
2021/06/19 00:32:40;;;;;;;7.88;4.18;;;;;;;;;;5093634;28;20433;-68
2021/06/19 00:35:06;;;;;;;4.87;3.60;;;;;;;;;;5093672;28;20487;-69
2021/06/19 00:37:34;;;;;;;6.00;3.50;;;;;;;;;;5093666;28;20499;-70
2021/06/19 00:40:00;;;;;;;;;;;;;;;;;;5094066;28;20020;-69
2021/06/19 00:42:26;;;;;;;6.80;3.35;;;;;;;;;;5094249;28;19910;-69
2021/06/19 00:44:52;;;;;;;11.13;4.35;;;;;;;;;;5093952;28;20059;-68
2021/06/19 00:47:18;;;;;;;5.30;3.95;;;;;;;;;;5093401;28;20028;-68
2021/06/19 00:49:44;;;;;;;8.25;4.03;;;;;;;;;;5093847;28;20038;-69
2021/06/19 00:52:10;;;;;;;5.60;3.63;;;;;;;;;;5093124;28;20396;-70
2021/06/19 00:54:36;;;;;;;4.60;4.20;;;;;;;;;;5093466;28;20016;-68
2021/06/19 00:57:03;;;;;;;5.27;3.33;;;;;;;;;;5093735;28;20377;-70
2021/06/19 00:59:30;;;;;;;5.80;3.97;;;;;;;;;;5094088;28;20476;-69
2021/06/19 01:01:56;;;;;;;5.40;3.58;;;;;;;;;;5093740;28;20461;-70
2021/06/19 01:04:22;;;;;;;6.43;3.80;;;;;;;;;;5093769;28;20127;-68
2021/06/19 01:06:48;;;;;;;5.63;3.95;;;;;;;;;;5093407;28;20090;-70
2021/06/19 01:09:14;;;;;;;5.88;5.10;;;;;;;;;;5093692;28;20020;-70
2021/06/19 01:11:40;;;;;;;5.57;4.13;;;;;;;;;;5093691;28;20016;-69
2021/06/19 01:14:07;;;;;;;9.57;4.80;;;;;;;;;;5093577;28;20020;-70
2021/06/19 01:16:34;;;;;;;6.80;3.72;;;;;;;;;;5093552;28;20032;-69
2021/06/19 01:19:01;;;;;;;8.10;4.13;;;;;;;;;;5093643;28;20364;-67
2021/06/19 01:21:31;;;;;;;5.28;3.67;;;;;;;;;;5093023;28;20024;-69
2021/06/19 01:23:58;;;;;;;5.10;3.15;;;;;;;;;;5093875;28;20093;-70
2021/06/19 01:26:25;;;;;;;4.28;3.83;;;;;;;;;;5093573;28;20024;-69
2021/06/19 01:28:51;;;;;;;7.15;3.38;;;;;;;;;;5093742;28;20464;-70
2021/06/19 01:31:18;;;;;;;9.57;4.82;;;;;;;;;;5092216;28;20418;-68
2021/06/19 01:33:45;;;;;;;6.68;3.25;;;;;;;;;;5093198;28;20377;-70
2021/06/19 01:36:12;;;;;;;5.07;3.70;;;;;;;;;;5093198;28;20024;-68
2021/06/19 01:38:39;;;;;;;6.63;4.38;;;;;;;;;;5093732;28;20103;-69
2021/06/19 01:41:05;;;;;;;8.18;3.88;;;;;;;;;;5093398;28;20016;-70
2021/06/19 01:43:31;;;;;;;5.40;3.40;;;;;;;;;;5091906;28;20083;-69
2021/06/19 01:45:57;;;;;;;8.38;3.95;;;;;;;;;;5092127;28;20358;-68
2021/06/19 01:48:23;;;;;;;9.02;3.70;;;;;;;;;;5094588;28;20028;-67
2021/06/19 01:50:50;;;;;;;6.18;4.05;;;;;;;;;;5096760;28;20069;-68
2021/06/19 01:53:16;;;;;;;6.65;3.67;;;;;;;;;;5096780;28;20021;-70
2021/06/19 01:55:43;;;;;;;4.88;3.63;;;;;;;;;;5096862;28;20028;-69
2021/06/19 01:58:11;;;;;;;6.60;3.50;;;;;;;;;;5097115;28;20016;-68
2021/06/19 02:00:37;;;;;;;8.52;4.40;;;;;;;;;;5096864;28;20020;-69
2021/06/19 02:03:06;;;;;;;10.10;5.28;;;;;;;;;;5096806;28;20385;-69
2021/06/19 02:05:32;;;;;;;3.90;3.60;;;;;;;;;;5097336;28;20062;-69
2021/06/19 02:08:00;;;;;;;5.35;4.30;;;;;;;;;;5095400;28;20024;-69
2021/06/19 02:10:31;;;;;;;6.20;3.70;;;;;;;;;;5096393;28;20524;-69
2021/06/19 02:12:58;;;;;;;6.28;4.72;;;;;;;;;;5096734;28;20069;-70
2021/06/19 02:15:24;;;;;;;6.88;4.68;;;;;;;;;;5095220;28;20081;-69
2021/06/19 02:17:51;;;;;;;5.68;5.13;;;;;;;;;;5096264;28;20066;-68
2021/06/19 02:20:18;;;;;;;4.43;3.90;;;;;;;;;;5097048;28;20024;-70
2021/06/19 02:22:44;;;;;;;10.02;4.88;;;;;;;;;;5095618;28;20031;-70
2021/06/19 02:25:11;;;;;;;5.43;4.50;;;;;;;;;;5096165;28;20109;-70
2021/06/19 02:27:39;;;;;;;;;;;;;;;;;;5096737;28;20031;-70
2021/06/19 02:30:05;;;;;;;6.32;3.83;;;;;;;;;;5094683;28;19954;-70
2021/06/19 02:32:31;;;;;;;4.97;4.60;;;;;;;;;;5094662;28;20351;-69
2021/06/19 02:34:57;;;;;;;7.22;4.75;;;;;;;;;;5096187;28;20058;-69
2021/06/19 02:37:24;;;;;;;8.23;4.82;;;;;;;;;;5096033;28;20032;-69
2021/06/19 02:39:50;;;;;;;7.18;4.88;;;;;;;;;;5094542;28;20020;-69
2021/06/19 02:42:16;;;;;;;8.93;3.80;;;;;;;;;;5094733;28;20385;-69
2021/06/19 02:44:42;;;;;;;5.80;4.28;;;;;;;;;;5094439;28;20020;-69
2021/06/19 02:47:08;;;;;;;6.70;4.78;;;;;;;;;;5096234;28;20028;-68
2021/06/19 02:49:34;;;;;;;9.13;5.50;;;;;;;;;;5095738;28;20073;-70
2021/06/19 02:52:00;;;;;;;3.83;3.50;;;;;;;;;;5095582;28;20024;-69
2021/06/19 02:54:26;;;;;;;4.57;4.07;;;;;;;;;;5095839;28;20016;-68
2021/06/19 02:56:53;;;;;;;4.50;3.65;;;;;;;;;;5096044;28;20028;-70
2021/06/19 02:59:19;;;;;;;6.43;4.00;;;;;;;;;;5094182;28;20016;-69
2021/06/19 03:01:45;;;;;;;5.03;2.90;;;;;;;;;;5094389;28;20028;-68
2021/06/19 03:04:13;;;;;;;6.70;3.85;;;;;;;;;;5095522;28;20052;-69
2021/06/19 03:06:39;;;;;;;4.05;3.65;;;;;;;;;;5095387;28;20031;-69
2021/06/19 03:09:06;;;;;;;4.00;3.70;;;;;;;;;;5095334;28;20027;-69
2021/06/19 03:11:32;;;;;;;10.02;4.70;;;;;;;;;;5095828;28;20368;-68
2021/06/19 03:13:58;;;;;;;6.35;4.38;;;;;;;;;;5095134;28;20024;-68
2021/06/19 03:16:24;;;;;;;5.25;3.08;;;;;;;;;;5095056;28;20040;-69
2021/06/19 03:18:50;;;;;;;7.13;3.92;;;;;;;;;;5094073;28;20024;-68
2021/06/19 03:21:16;;;;;;;6.90;4.15;;;;;;;;;;5094703;28;20398;-69
2021/06/19 03:23:42;;;;;;;8.32;3.88;;;;;;;;;;5095035;28;20024;-69
2021/06/19 03:26:08;;;;;;;6.93;4.72;;;;;;;;;;5095233;28;20024;-69
2021/06/19 03:28:35;;;;;;;11.15;4.05;;;;;;;;;;5093607;28;20468;-69
2021/06/19 03:31:01;;;;;;;9.15;5.80;;;;;;;;;;5095396;28;20027;-68
2021/06/19 03:33:27;;;;;;;7.50;5.43;;;;;;;;;;5093521;28;20020;-68
2021/06/19 03:35:53;;;;;;;6.53;5.65;;;;;;;;;;5094176;28;20381;-68
2021/06/19 03:38:19;;;;;;;5.93;4.50;;;;;;;;;;5094022;28;20028;-67
2021/06/19 03:40:45;;;;;;;10.30;5.00;;;;;;;;;;5093465;28;20027;-67
2021/06/19 03:43:11;;;;;;;6.63;4.65;;;;;;;;;;5094427;28;20016;-69
2021/06/19 03:45:37;;;;;;;7.03;5.10;;;;;;;;;;5095009;28;20032;-68
2021/06/19 03:48:05;;;;;;;10.30;4.90;;;;;;;;;;5094042;28;20059;-67
2021/06/19 03:50:31;;;;;;;9.45;4.80;;;;;;;;;;5094247;28;20476;-68
2021/06/19 03:52:58;;;;;;;5.27;4.53;;;;;;;;;;5094116;28;20385;-69
2021/06/19 03:55:24;;;;;;;5.78;3.97;;;;;;;;;;5094233;28;20249;-67
2021/06/19 03:57:50;;;;;;;6.38;4.57;;;;;;;;;;5094979;28;20477;-69
2021/06/19 04:00:17;;;;;;;6.57;4.80;;;;;;;;;;5094395;28;20031;-67
2021/06/19 04:02:44;;;;;;;5.55;4.80;;;;;;;;;;5094416;28;20035;-69
2021/06/19 04:05:11;;;;;;;7.78;4.88;;;;;;;;;;5093577;28;20048;-69
2021/06/19 04:07:37;;;;;;;9.30;4.93;;;;;;;;;;5093278;28;20023;-68
2021/06/19 04:10:05;;;;;;;5.03;4.63;;;;;;;;;;5093042;28;20027;-68
2021/06/19 04:12:31;;;;;;;6.30;4.50;;;;;;;;;;5092530;28;20024;-68
2021/06/19 04:14:57;;;;;;;7.82;4.90;;;;;;;;;;5093598;28;20031;-68
2021/06/19 04:17:23;;;;;;;4.50;3.63;;;;;;;;;;5093508;28;20032;-69
2021/06/19 04:19:49;;;;;;;7.30;4.28;;;;;;;;;;5093900;28;20095;-68
2021/06/19 04:22:16;;;;;;;4.35;3.95;;;;;;;;;;5094836;28;20115;-67
2021/06/19 04:24:42;;;;;;;12.63;5.32;;;;;;;;;;5093902;28;20051;-69
2021/06/19 04:27:13;;;;;;;5.35;4.25;;;;;;;;;;5092900;28;20067;-69
2021/06/19 04:29:40;;;;;;;8.20;4.55;;;;;;;;;;5093793;28;20549;-67
2021/06/19 04:32:07;;;;;;;10.03;4.90;;;;;;;;;;5094261;28;20077;-68
2021/06/19 04:34:33;;;;;;;7.68;3.92;;;;;;;;;;5093791;28;20253;-67
2021/06/19 04:36:59;;;;;;;7.77;4.50;;;;;;;;;;5093965;28;20082;-67
2021/06/19 04:39:25;;;;;;;4.60;4.30;;;;;;;;;;5093769;28;20236;-69
2021/06/19 04:41:55;;;;;;;7.00;4.32;;;;;;;;;;5094193;28;20070;-68
2021/06/19 04:46:47;;;;;;;13.43;5.37;;;;;;;;;;5094533;28;20040;-69
2021/06/19 04:49:14;;;;;;;5.88;3.55;;;;;;;;;;5093923;28;20027;-68
2021/06/19 04:51:41;;;;;;;10.68;3.83;;;;;;;;;;5093618;28;20024;-68
2021/06/19 04:54:07;;;;;;;9.10;5.95;;;;;;;;;;5093566;28;20024;-68
2021/06/19 04:56:34;;;;;;;5.40;4.32;;;;;;;;;;5094070;28;20111;-68
2021/06/19 04:59:01;;;;;;;7.03;4.10;;;;;;;;;;5093328;28;20055;-69
2021/06/19 05:01:28;;;;;;;27.48;5.07;;;;;;;;;;5094119;28;20026;-69
2021/06/19 05:03:54;;;;;;;5.25;4.38;;;;;;;;;;5093624;28;20075;-68
2021/06/19 05:06:20;;;;;;;5.40;4.80;;;;;;;;;;5092290;28;20059;-68
2021/06/19 05:08:46;;;;;;;8.70;4.10;;;;;;;;;;5093040;28;20391;-69
2021/06/19 05:11:13;;;;;;;4.30;3.90;;;;;;;;;;5093734;28;20016;-68
2021/06/19 05:13:39;;;;;;;4.80;3.97;;;;;;;;;;5092144;28;20340;-67
2021/06/19 05:16:05;;;;;;;10.95;4.32;;;;;;;;;;5093619;28;20111;-68
2021/06/19 05:18:31;;;;;;;5.13;3.97;;;;;;;;;;5092365;28;20020;-68
2021/06/19 05:20:57;;;;;;;7.95;4.30;;;;;;;;;;5093640;28;20027;-69
2021/06/19 05:23:23;;;;;;;4.32;3.83;;;;;;;;;;5096671;28;20026;-76
2021/06/19 05:25:49;;;;;;;13.80;4.97;;;;;;;;;;5097282;28;20028;-75
2021/06/19 05:28:16;;;;;;;5.00;3.75;;;;;;;;;;5097340;28;20074;-76
2021/06/19 05:30:42;;;;;;;;;;;;;;;;;;5097897;28;20020;-72
2021/06/19 05:33:09;;;;;;;4.53;4.22;;;;;;;;;;5095871;28;20254;-72
2021/06/19 05:35:35;;;;;;;6.67;3.67;;;;;;;;;;5096000;28;20127;-75
2021/06/19 05:38:01;;;;;;;21.83;4.45;;;;;;;;;;5096052;28;20024;-72
2021/06/19 05:40:27;;;;;;;6.20;4.57;;;;;;;;;;5097338;28;20414;-72
2021/06/19 05:42:53;;;;;;;13.70;4.57;;;;;;;;;;5097252;28;20031;-71
2021/06/19 05:45:19;;;;;;;13.38;4.78;;;;;;;;;;5097190;28;20012;-71
2021/06/19 05:47:46;;;;;;;7.20;4.60;;;;;;;;;;5095884;28;20028;-69
2021/06/19 05:50:12;;;;;;;5.57;4.17;;;;;;;;;;5097135;28;20095;-71
2021/06/19 05:52:38;;;;;;;6.18;4.57;;;;;;;;;;5097107;28;20095;-72
2021/06/19 05:55:06;;;;;;;7.53;3.75;;;;;;;;;;5096550;28;20030;-72
2021/06/19 05:57:32;;;;;;;7.05;4.60;;;;;;;;;;5096588;28;20407;-67
2021/06/19 05:59:58;;;;;;;12.07;5.07;;;;;;;;;;5095534;28;20032;-67
2021/06/19 06:02:24;;;;;;;8.60;4.20;;;;;;;;;;5096563;28;20039;-68
2021/06/19 06:04:50;;;;;;;4.72;3.55;;;;;;;;;;5097018;28;20280;-68
2021/06/19 06:07:16;;;;;;;12.03;4.10;;;;;;;;;;5096994;28;20032;-67
2021/06/19 06:09:42;;;;;;;8.90;4.40;;;;;;;;;;5096470;28;20331;-67
2021/06/19 06:12:09;;;;;;;5.70;3.43;;;;;;;;;;5096731;28;20035;-68
2021/06/19 06:14:35;;;;;;;6.00;3.30;;;;;;;;;;5096579;28;20031;-69
2021/06/19 06:17:02;;;;;;;5.20;3.55;;;;;;;;;;5096401;28;20038;-69
2021/06/19 06:19:28;;;;;;;4.55;3.58;;;;;;;;;;5096254;28;20496;-67
2021/06/19 06:21:54;;;;;;;8.30;3.80;;;;;;;;;;5096221;28;20028;-69
2021/06/19 06:24:20;;;;;;;7.10;3.85;;;;;;;;;;5096182;28;20245;-69
2021/06/19 06:26:46;;;;;;;10.10;4.55;;;;;;;;;;5096711;28;20114;-68
2021/06/19 06:29:13;;;;;;;3.83;3.17;;;;;;;;;;5094821;28;20060;-70
2021/06/19 06:31:39;;;;;;;6.63;3.70;;;;;;;;;;5096062;28;20028;-70
2021/06/19 06:34:05;;;;;;;4.13;3.73;;;;;;;;;;5096240;28;20071;-70
2021/06/19 06:36:31;;;;;;;5.95;3.97;;;;;;;;;;5095894;28;20508;-67
2021/06/19 06:39:02;;;;;;;7.70;4.38;;;;;;;;;;5094878;28;20354;-69
2021/06/19 06:41:28;;;;;;;4.65;2.92;;;;;;;;;;5096064;28;20419;-69
2021/06/19 06:43:54;;;;;;;5.93;3.53;;;;;;;;;;5096051;28;20075;-71
2021/06/19 06:46:20;;;;;;;5.40;3.10;;;;;;;;;;5096059;28;20324;-69
2021/06/19 06:48:48;;;;;;;6.83;3.43;;;;;;;;;;5094682;28;20111;-69
2021/06/19 06:51:14;;;;;;;4.30;3.15;;;;;;;;;;5095627;28;20737;-71
2021/06/19 06:53:40;;;;;;;9.00;4.07;;;;;;;;;;5096034;28;20059;-71
2021/06/19 06:56:06;;;;;;;4.90;2.85;;;;;;;;;;5094503;28;20476;-70
2021/06/19 06:58:32;;;;;;;6.38;3.50;;;;;;;;;;5095523;28;20016;-69
2021/06/19 07:01:00;;;;;;;9.25;2.65;;;;;;;;;;5094533;28;20020;-69
2021/06/19 07:03:26;;;;;;;3.20;2.90;;;;;;;;;;5095732;28;20429;-70
2021/06/19 07:05:52;;;;;;;8.50;3.30;;;;;;;;;;5093935;28;20553;-69
2021/06/19 07:08:18;;;;;;;20.00;4.40;;;;;;;;;;5095326;28;20024;-69
2021/06/19 07:10:44;;;;;;;9.05;2.63;;;;;;;;;;5095597;28;20020;-71
2021/06/19 07:13:10;;;;;;;7.22;2.22;;;;;;;;;;5095525;28;20020;-71
2021/06/19 07:15:37;;;;;;;3.22;2.78;;;;;;;;;;5095118;28;20028;-70
2021/06/19 07:18:03;;;;;;;9.75;2.58;;;;;;;;;;5095477;28;20063;-68
2021/06/19 07:20:30;;;;;;;6.28;2.58;;;;;;;;;;5095655;28;20024;-68
2021/06/19 07:22:56;;;;;;;3.08;2.70;;;;;;;;;;5095062;28;20020;-69
2021/06/19 07:25:22;;;;;;;5.93;3.45;;;;;;;;;;5095343;28;20021;-70
2021/06/19 07:27:53;;;;;;;9.15;2.85;;;;;;;;;;5095265;28;20099;-69
2021/06/19 07:30:20;;;;;;;4.03;2.53;;;;;;;;;;5095003;28;20023;-70
2021/06/19 07:32:46;;;;;;;;;;;;;;;;;;5094531;28;20350;-68
2021/06/19 07:35:12;;;;;;;6.47;2.38;;;;;;;;;;5094846;28;19912;-70
2021/06/19 07:37:39;;;;;;;6.53;3.22;;;;;;;;;;5094711;28;20402;-69
2021/06/19 07:40:06;;;;;;;7.75;3.00;;;;;;;;;;5094987;28;20516;-70
2021/06/19 07:42:35;;;;;;;5.80;2.00;;;;;;;;;;5093459;28;20460;-69
2021/06/19 07:45:02;;;;;;;7.20;2.83;;;;;;;;;;5094383;28;20042;-70
2021/06/19 07:47:28;;;;;;;3.55;2.17;;;;;;;;;;5094596;28;20031;-69
2021/06/19 07:49:54;;;;;;;6.85;2.53;;;;;;;;;;5094316;28;20043;-68
2021/06/19 07:52:20;;;;;;;7.32;2.15;;;;;;;;;;5093223;28;20036;-69
2021/06/19 07:54:47;;;;;;;4.95;2.00;;;;;;;;;;5094429;28;20024;-69
2021/06/19 07:57:13;;;;;;;5.25;2.00;;;;;;;;;;5094484;28;20039;-69
2021/06/19 07:59:39;;;;;;;5.45;2.40;;;;;;;;;;5093917;28;20468;-69
2021/06/19 08:02:08;;;;;;;5.05;1.88;;;;;;;;;;5094648;28;20508;-68
2021/06/19 08:04:35;;;;;;;6.43;2.13;;;;;;;;;;5093898;28;20052;-70
2021/06/19 08:07:01;;;;;;;;;;;;;;;;;;5094930;28;20028;-70
2021/06/19 08:09:27;;;;;;;3.70;2.40;;;;;;;;;;5094468;28;19980;-69
2021/06/19 08:11:53;;;;;;;3.15;2.20;;;;;;;;;;5094150;28;20068;-70
2021/06/19 08:14:21;;;;;;;7.00;2.45;;;;;;;;;;5094760;28;20020;-70
2021/06/19 08:16:49;;;;;;;5.38;2.30;;;;;;;;;;5093966;28;20035;-69
2021/06/19 08:19:16;;;;;;;4.07;1.77;;;;;;;;;;5094025;28;20016;-70
2021/06/19 08:21:42;;;;;;;3.90;1.90;;;;;;;;;;5094323;28;20043;-69
2021/06/19 08:24:08;;;;;;;4.57;1.70;;;;;;;;;;5093179;28;20385;-70
2021/06/19 08:26:38;;;;;;;2.58;1.95;;;;;;;;;;5093959;28;20024;-70
2021/06/19 08:29:04;;;;;;;4.85;1.83;;;;;;;;;;5092883;28;20101;-69
2021/06/19 08:31:33;;;;;;;2.55;2.33;;;;;;;;;;5094401;28;20705;-69
2021/06/19 08:33:59;;;;;;;3.92;1.63;;;;;;;;;;5094127;28;20028;-70
2021/06/19 08:36:25;;;;;;;4.70;1.88;;;;;;;;;;5093990;28;20028;-70
2021/06/19 08:38:51;;;;;;;10.75;2.35;;;;;;;;;;5092493;28;20380;-70
2021/06/19 08:41:18;;;;;;;2.63;2.42;;;;;;;;;;5093786;28;20035;-68
2021/06/19 08:43:45;;;;;;;2.83;1.80;;;;;;;;;;5094527;28;20118;-69
2021/06/19 08:46:12;;;;;;;1.80;1.70;;;;;;;;;;5093748;28;20028;-69
2021/06/19 08:48:39;;;;;;;10.32;2.17;;;;;;;;;;5093673;28;20516;-69
2021/06/19 08:51:06;;;;;;;4.00;1.70;;;;;;;;;;5093911;28;20028;-70
2021/06/19 08:53:33;;;;;;;6.53;1.83;;;;;;;;;;5093716;28;20028;-68
2021/06/19 08:55:59;;;;;;;3.67;1.70;;;;;;;;;;5093770;28;20032;-69
2021/06/19 08:58:25;;;;;;;6.20;2.08;;;;;;;;;;5096835;28;20050;-70
2021/06/19 09:00:51;;;;;;;6.20;2.30;;;;;;;;;;5098191;28;20457;-71
2021/06/19 09:03:24;;;;;;;10.23;2.63;;;;;;;;;;5098007;28;20031;-70
2021/06/19 09:05:54;;;;;;;4.55;2.83;;;;;;;;;;5098729;28;20521;-71
2021/06/19 09:08:20;;;;;;;3.60;2.20;;;;;;;;;;5096365;28;20085;-69
2021/06/19 09:10:46;;;;;;;6.55;3.05;;;;;;;;;;5097971;28;20027;-70
2021/06/19 09:13:19;;;;;;;3.17;2.03;;;;;;;;;;5098392;28;20024;-69
2021/06/19 09:15:56;;;;;;;6.78;2.25;;;;;;;;;;5098060;28;20032;-70
2021/06/19 09:18:23;;;;;;;2.90;2.03;;;;;;;;;;5098254;28;20475;-69
2021/06/19 09:20:55;;;;;;;4.35;2.60;;;;;;;;;;5097674;28;20039;-68
2021/06/19 09:23:27;;;;;;;5.25;2.92;;;;;;;;;;5097608;28;20103;-69
2021/06/19 09:26:05;;;;;;;4.95;2.45;;;;;;;;;;5097312;28;20508;-71
2021/06/19 09:28:31;;;;;;;2.80;1.45;;;;;;;;;;5096223;28;20024;-69
2021/06/19 09:30:57;;;;;;;1.98;1.92;;;;;;;;;;5098352;28;20031;-70
2021/06/19 09:33:23;;;;;;;4.25;2.45;;;;;;;;;;5097203;28;20073;-70
2021/06/19 09:35:49;;;;;;;3.10;1.77;;;;;;;;;;5097072;28;20032;-68
2021/06/19 09:38:16;;;;;;;2.42;2.22;;;;;;;;;;5097630;28;20028;-69
2021/06/19 09:40:44;;;;;;;3.28;2.05;;;;;;;;;;5096895;28;20427;-67
2021/06/19 09:43:12;;;;;;;6.43;2.20;;;;;;;;;;5096666;28;20024;-68
2021/06/19 09:45:39;;;;;;;7.38;2.53;;;;;;;;;;5097220;28;20032;-69
2021/06/19 09:48:06;;;;;;;3.15;2.67;;;;;;;;;;5097147;28;20465;-70
2021/06/19 09:50:32;;;;;;;8.18;2.85;;;;;;;;;;5095639;28;20027;-69
2021/06/19 09:53:12;;;;;;;4.78;2.33;;;;;;;;;;5097124;28;20024;-69
2021/06/19 09:55:41;;;;;;;5.47;2.80;;;;;;;;;;5096707;28;20028;-67
2021/06/19 09:58:07;;;;;;;5.78;2.15;;;;;;;;;;5096700;28;20025;-68
2021/06/19 10:00:39;;;;;;;4.47;1.83;;;;;;;;;;5097181;28;20020;-68
2021/06/19 10:03:05;;;;;;;1.92;1.83;;;;;;;;;;5096394;28;20439;-68
2021/06/19 10:05:31;;;;;;;7.30;3.08;;;;;;;;;;5097931;28;20047;-69
2021/06/19 10:07:58;;;;;;;5.07;2.88;;;;;;;;;;5096364;28;20464;-67
2021/06/19 10:10:25;;;;;;;4.03;2.50;;;;;;;;;;5096584;28;20078;-67
2021/06/19 10:12:52;;;;;;;7.43;2.15;;;;;;;;;;5097565;28;20031;-66
2021/06/19 10:15:18;;;;;;;7.78;2.90;;;;;;;;;;5096938;28;20020;-68
2021/06/19 10:17:45;;;;;;;5.53;2.42;;;;;;;;;;5096325;28;20097;-69
2021/06/19 10:20:15;;;;;;;8.60;2.83;;;;;;;;;;5095281;28;20031;-69
2021/06/19 10:22:42;;;;;;;5.18;2.85;;;;;;;;;;5096530;28;20134;-70
2021/06/19 10:25:10;;;;;;;5.00;2.47;;;;;;;;;;5096195;28;20028;-69
2021/06/19 10:27:44;;;;;;;5.65;2.45;;;;;;;;;;5095132;28;20481;-68
2021/06/19 10:30:11;;;;;;;4.45;2.60;;;;;;;;;;5096199;28;20024;-67
2021/06/19 10:32:58;;;;;;;4.80;3.08;;;;;;;;;;5096112;28;20476;-67
2021/06/19 10:35:44;;;;;;;4.65;2.45;;;;;;;;;;5096413;28;20518;-69
2021/06/19 10:38:20;;;;;;;6.38;3.13;;;;;;;;;;5095946;28;20479;-69
2021/06/19 10:40:52;;;;;;;4.82;2.05;;;;;;;;;;5096515;28;20020;-66
2021/06/19 10:43:22;;;;;;;7.55;2.78;;;;;;;;;;5095883;28;20020;-68
2021/06/19 10:48:08;;;;;;;3.67;2.65;;;;;;;;;;5134412;27;20142;-67
2021/06/19 10:50:35;;;;;;;6.40;3.08;;;;;;;;;;5132236;28;20028;-68
2021/06/19 10:53:22;;;;;;;10.38;2.38;;;;;;;;;;5131823;28;20011;-67
2021/06/19 10:55:53;;;;;;;13.30;3.55;;;;;;;;;;5132379;28;20022;-67
2021/06/19 10:58:24;;;;;;;9.27;3.88;;;;;;;;;;5131684;28;20020;-68
2021/06/19 11:00:51;;;;;;;4.93;3.00;;;;;;;;;;5132350;28;20023;-71
2021/06/19 11:03:18;;;;;;;5.95;3.50;;;;;;;;;;5131965;28;20024;-67
2021/06/19 11:05:54;;;;;;;3.72;2.30;;;;;;;;;;5131341;28;20023;-68
2021/06/19 11:08:20;;;;;;;14.38;5.80;;;;;;;;;;5131765;28;20059;-68
2021/06/19 11:10:47;;;;;;;;;;;;;;;;;;5132383;28;20381;-68
2021/06/19 11:13:31;;;;;;;5.78;4.20;;;;;;;;;;5130467;28;19911;-66
2021/06/19 11:16:07;;;;;;;4.57;2.85;;;;;;;;;;5130555;28;20457;-68
2021/06/19 11:18:48;;;;;;;3.20;2.22;;;;;;;;;;5130486;28;20434;-68
2021/06/19 11:21:15;;;;;;;8.88;3.13;;;;;;;;;;5130336;28;20020;-69
2021/06/19 11:24:00;;;;;;;13.38;5.57;;;;;;;;;;5130889;28;20046;-67
2021/06/19 11:26:46;;;;;;;6.57;2.55;;;;;;;;;;5111522;28;20201;-67
2021/06/19 11:29:31;;;;;;;8.20;2.70;;;;;;;;;;5130444;28;20459;-66
2021/06/19 11:31:58;;;;;;;2.75;2.53;;;;;;;;;;5130116;28;20031;-67
2021/06/19 11:34:23;;;;;;;;;;;;;;;;;;5130454;28;20019;-65
2021/06/19 11:36:49;;;;;;;;;;;;;;;;;;5130450;28;20424;-69
2021/06/19 11:39:16;;;;;;;;;;;;;;;;;;5130652;28;20317;-67
2021/06/19 11:41:43;;;;;;;1.98;1.83;;;;;;;;;;5130180;28;19911;-66
2021/06/19 11:44:10;;;;;;;7.72;3.00;;;;;;;;;;5129821;28;20102;-66
2021/06/19 11:46:36;;;;;;;2.47;2.28;;;;;;;;;;5111685;28;20051;-66
2021/06/19 11:49:08;;;;;;;5.30;2.08;;;;;;;;;;5129843;28;20078;-69
2021/06/19 11:51:35;;;;;;;4.03;1.88;;;;;;;;;;5129709;28;20541;-65
2021/06/19 11:54:01;;;;;;;6.05;1.70;;;;;;;;;;5129984;28;20054;-67
2021/06/19 11:56:27;;;;;;;;;;;;;;;;;;5129918;28;20484;-65
2021/06/19 11:58:54;;;;;;;;;;;;;;;;;;5119476;28;19953;-67
2021/06/19 12:01:23;;;;;;;4.03;2.10;;;;;;;;;;5115771;28;19998;-66
2021/06/19 12:03:49;;;;;;;5.28;2.28;;;;;;;;;;5116264;28;20015;-66
2021/06/19 12:06:15;;;;;;;;;;;;;;;;;;5116039;28;20152;-67
2021/06/19 12:08:41;;;;;;;;;;;;;;;;;;5116366;28;19969;-67
2021/06/19 12:11:07;;;;;;;5.43;2.40;;;;;;;;;;5116472;28;19908;-68
2021/06/19 12:13:33;;;;;;;;;;;;;;;;;;5116410;28;20058;-64
2021/06/19 12:15:59;;;;;;;;;;;;;;;;;;5115575;28;19916;-65
2021/06/19 12:18:25;;;;;;;;;;;;;;;;;;5116316;28;19904;-67
2021/06/19 12:20:51;;;;;;;;;;;;;;;;;;5096230;28;19910;-67
2021/06/19 12:23:17;;;;;;;;;;;;;;;;;;5115000;28;19903;-66
2021/06/19 12:25:44;;;;;;;3.80;1.83;;;;;;;;;;5113261;28;19935;-66
2021/06/19 12:28:20;;;;;;;6.72;2.10;;;;;;;;;;5114781;28;20039;-66
2021/06/19 12:30:56;;;;;;;10.32;5.25;;;;;;;;;;5115066;28;20079;-66
2021/06/19 12:33:26;;;;;;;9.45;4.75;;;;;;;;;;5115621;28;20166;-67
2021/06/19 12:35:52;;;;;;;17.73;15.48;;;;;;;;;;5115124;28;20034;-65
2021/06/19 12:38:19;;;;;;;6.60;3.28;;;;;;;;;;5114999;28;20107;-65
2021/06/19 12:40:45;;;;;;;;;;;;;;;;;;5113911;28;20023;-67
2021/06/19 12:43:11;;;;;;;;;;;;;;;;;;5113487;28;19957;-66
2021/06/19 12:45:38;;;;;;;;;;;;;;;;;;5115955;28;19907;-65
2021/06/19 12:48:07;;;;;;;1.33;1.33;;;;;;;;;;5115528;28;19915;-66
2021/06/19 12:50:33;;;;;;;3.55;1.98;;;;;;;;;;5114468;28;20080;-65
2021/06/19 12:53:01;;;;;;;1.73;1.55;;;;;;;;;;5114933;28;20020;-66
2021/06/19 12:55:28;;;;;;;3.30;1.70;;;;;;;;;;5115539;28;20107;-68
2021/06/19 12:58:04;;;;;;;1.83;1.77;;;;;;;;;;5113800;28;20087;-67
2021/06/19 13:00:30;;;;;;;;;;;;;;;;;;5115071;28;20088;-67
2021/06/19 13:02:56;;;;;;;;;;;;;;;;;;5095761;28;19919;-66
2021/06/19 13:05:22;;;;;;;;;;;;;;;;;;5111897;28;19926;-66
2021/06/19 13:07:48;;;;;;;;;;;;;;;;;;5111561;28;19916;-67
2021/06/19 13:10:14;;;;;;;;;;;;;;;;;;5110829;28;19904;-66
2021/06/19 13:12:47;;;;;;;2.28;1.08;;;;;;;;;;5111065;28;19904;-67
2021/06/19 13:15:14;;;;;;;3.15;1.48;;;;;;;;;;5109679;28;20012;-66
2021/06/19 13:17:40;;;;;;;;;;;;;;;;;;5112692;28;20027;-67
2021/06/19 13:20:06;;;;;;;;;;;;;;;;;;5094810;28;19903;-66
2021/06/19 13:22:32;;;;;;;;;;;;;;;;;;5113227;28;20480;-66
2021/06/19 13:24:59;;;;;;;3.15;1.92;;;;;;;;;;5113406;28;20268;-66
2021/06/19 13:27:25;;;;;;;4.03;1.92;;;;;;;;;;5112268;28;20110;-66
2021/06/19 13:30:04;;;;;;;6.25;2.22;;;;;;;;;;5113021;28;20019;-66
2021/06/19 13:32:30;;;;;;;1.88;1.20;;;;;;;;;;5110094;28;20498;-65
2021/06/19 13:34:57;;;;;;;2.53;1.60;;;;;;;;;;5112949;28;20028;-66
2021/06/19 13:37:32;;;;;;;2.00;1.60;;;;;;;;;;5094402;28;20425;-66
2021/06/19 13:39:58;;;;;;;5.28;1.10;;;;;;;;;;5111575;28;20468;-65
2021/06/19 13:42:25;;;;;;;8.07;1.42;;;;;;;;;;5114128;28;20079;-64
2021/06/19 13:44:55;;;;;;;1.48;1.05;;;;;;;;;;5114330;28;20102;-66
2021/06/19 13:47:22;;;;;;;3.95;1.20;;;;;;;;;;5113728;28;20058;-66
2021/06/19 13:49:47;;;;;;;;;;;;;;;;;;5114376;28;20020;-64
2021/06/19 13:52:13;;;;;;;;;;;;;;;;;;5114643;28;20264;-65
2021/06/19 13:54:40;;;;;;;1.00;0.80;;;;;;;;;;5113597;28;20002;-66
2021/06/19 13:57:07;;;;;;;2.47;1.08;;;;;;;;;;5114370;28;20028;-65
2021/06/19 13:59:37;;;;;;;2.58;1.27;;;;;;;;;;5113687;28;20027;-66
2021/06/19 14:02:03;;;;;;;4.15;0.93;;;;;;;;;;5113147;28;20065;-66
2021/06/19 14:04:30;;;;;;;4.25;1.55;;;;;;;;;;5113421;28;20464;-66
2021/06/19 14:06:56;;;;;;;;;;;;;;;;;;5114181;28;20039;-68
2021/06/19 14:09:22;;;;;;;0.90;0.88;;;;;;;;;;5113046;28;19911;-66
2021/06/19 14:11:48;;;;;;;6.68;1.88;;;;;;;;;;5113560;28;20418;-66
2021/06/19 14:14:15;;;;;;;6.40;1.35;;;;;;;;;;5113764;28;20047;-67
2021/06/19 14:16:41;;;;;;;;;;;;;;;;;;5114807;28;20401;-65
2021/06/19 14:19:07;;;;;;;3.85;1.75;;;;;;;;;;5113826;28;19947;-67
2021/06/19 14:21:34;;;;;;;6.38;1.73;;;;;;;;;;5113451;28;20016;-66
2021/06/19 14:24:00;;;;;;;3.30;0.95;;;;;;;;;;5113493;28;20023;-67
2021/06/19 14:26:30;;;;;;;1.20;1.17;;;;;;;;;;5113047;28;20031;-65
2021/06/19 14:28:56;;;;;;;1.13;0.82;;;;;;;;;;5113407;28;20020;-66
2021/06/19 14:31:22;;;;;;;3.33;1.02;;;;;;;;;;5113429;28;20027;-68
2021/06/19 14:33:49;;;;;;;7.50;1.17;;;;;;;;;;5113474;28;20079;-66
2021/06/19 14:36:16;;;;;;;3.15;0.80;;;;;;;;;;5112639;28;20503;-67
2021/06/19 14:38:42;;;;;;;5.00;1.33;;;;;;;;;;5113241;28;20038;-64
2021/06/19 14:41:08;;;;;;;5.25;1.10;;;;;;;;;;5113766;28;20108;-66
2021/06/19 14:43:36;;;;;;;7.65;1.80;;;;;;;;;;5113130;28;20479;-65
2021/06/19 14:46:02;;;;;;;3.63;1.35;;;;;;;;;;5112759;28;20035;-66
2021/06/19 14:48:29;;;;;;;1.85;0.95;;;;;;;;;;5113460;28;20080;-66
2021/06/19 14:50:55;;;;;;;9.07;1.13;;;;;;;;;;5112516;28;20383;-65
2021/06/19 14:53:21;;;;;;;1.50;1.05;;;;;;;;;;5113063;28;20023;-66
2021/06/19 14:55:48;;;;;;;3.42;1.13;;;;;;;;;;5112749;28;20058;-68